Time;durP1;ratioP1;P1;durP2;ratioP2;P2;SDS_P1;SDS_P2;PMS_P1;PMS_P2;Temp;Humidity;BMP_temperature;BMP_pressure;BME280_temperature;BME280_humidity;BME280_pressure;Samples;Min_cycle;Max_cycle;Signal;HPM_P1;HPM_P2
2022/12/18 00:01:44;;;;;;;65.78;39.72;;;;;;;-7.16;100.00;102669.09;5030148;28;20034;-66
2022/12/18 00:04:23;;;;;;;64.70;39.58;;;;;;;-7.24;100.00;102665.69;5026248;28;20397;-64
2022/12/18 00:06:49;;;;;;;64.13;39.75;;;;;;;-7.23;100.00;102666.63;5026429;28;20105;-64
2022/12/18 00:09:14;;;;;;;64.65;39.70;;;;;;;-7.28;100.00;102663.56;5025068;28;20033;-64
2022/12/18 00:11:40;;;;;;;64.45;39.58;;;;;;;-7.35;100.00;102668.81;5023648;28;20034;-63
2022/12/18 00:14:05;;;;;;;64.07;39.08;;;;;;;-7.39;100.00;102671.81;5026580;28;20037;-64
2022/12/18 00:16:32;;;;;;;67.40;38.83;;;;;;;-7.33;100.00;102668.97;5023584;28;20389;-65
2022/12/18 00:18:59;;;;;;;64.70;38.83;;;;;;;-7.42;100.00;102664.66;5025806;28;20036;-64
2022/12/18 00:21:26;;;;;;;66.47;40.75;;;;;;;-7.40;100.00;102657.13;5023810;28;20030;-64
2022/12/18 00:23:51;;;;;;;70.25;41.95;;;;;;;-7.39;100.00;102648.69;5026470;28;20029;-65
2022/12/18 00:26:20;;;;;;;71.20;42.10;;;;;;;-7.39;100.00;102649.56;5023455;28;20167;-65
2022/12/18 00:28:46;;;;;;;73.57;42.47;;;;;;;-7.34;100.00;102631.16;5025453;28;20143;-64
2022/12/18 00:31:14;;;;;;;75.18;42.88;;;;;;;-7.37;100.00;102624.03;5023982;28;20140;-64
2022/12/18 00:33:40;;;;;;;75.55;44.05;;;;;;;-7.40;100.00;102614.34;5024571;28;20018;-67
2022/12/18 00:36:07;;;;;;;78.68;44.83;;;;;;;-7.49;100.00;102618.53;5026083;28;20040;-68
2022/12/18 00:38:33;;;;;;;78.32;44.42;;;;;;;-7.50;100.00;102619.25;5023406;28;20033;-67
2022/12/18 00:40:59;;;;;;;73.60;42.97;;;;;;;-7.46;100.00;102625.66;5026698;28;20034;-66
2022/12/18 00:43:25;;;;;;;68.93;41.45;;;;;;;-7.49;100.00;102618.53;5023509;28;20536;-68
2022/12/18 00:45:50;;;;;;;69.55;41.30;;;;;;;-7.51;100.00;102614.88;5025669;28;20072;-67
2022/12/18 00:48:15;;;;;;;66.88;40.85;;;;;;;-7.54;100.00;102619.72;5024365;28;20067;-68
2022/12/18 00:50:41;;;;;;;66.18;41.22;;;;;;;-7.55;100.00;102615.31;5022975;28;20062;-67
2022/12/18 00:53:06;;;;;;;64.15;40.05;;;;;;;-7.54;100.00;102624.84;5025850;28;20043;-67
2022/12/18 00:55:32;;;;;;;65.00;41.03;;;;;;;-7.62;100.00;102617.97;5023240;28;20359;-66
2022/12/18 00:57:57;;;;;;;67.65;39.70;;;;;;;-7.64;100.00;102609.22;5026499;28;20039;-66
2022/12/18 01:00:22;;;;;;;61.53;38.35;;;;;;;-7.73;100.00;102612.63;5023460;28;20044;-66
2022/12/18 01:02:48;;;;;;;62.05;38.17;;;;;;;-7.73;100.00;102615.19;5025568;28;20038;-66
2022/12/18 01:05:13;;;;;;;62.67;37.78;;;;;;;-7.74;100.00;102615.03;5024643;28;20026;-67
2022/12/18 01:07:39;;;;;;;60.45;38.08;;;;;;;-7.76;100.00;102622.56;5023768;28;20030;-67
2022/12/18 01:10:06;;;;;;;61.70;38.65;;;;;;;-7.82;100.00;102633.84;5025609;28;20396;-66
2022/12/18 01:12:31;;;;;;;61.17;38.17;;;;;;;-7.83;100.00;102639.72;5021894;28;20366;-67
2022/12/18 01:14:57;;;;;;;63.78;38.60;;;;;;;-7.86;100.00;102642.88;5024710;28;20055;-62
2022/12/18 01:17:22;;;;;;;61.25;37.08;;;;;;;-7.96;100.00;102642.66;5023172;28;20457;-63
2022/12/18 01:19:48;;;;;;;58.88;37.00;;;;;;;-7.95;100.00;102647.00;5024662;28;20058;-64
2022/12/18 01:22:13;;;;;;;61.15;37.95;;;;;;;-7.99;100.00;102644.84;5024376;28;20025;-65
2022/12/18 01:24:39;;;;;;;58.25;36.40;;;;;;;-7.95;100.00;102655.66;5023540;28;20064;-63
2022/12/18 01:27:04;;;;;;;58.75;36.33;;;;;;;-7.90;100.00;102646.75;5025314;28;20091;-64
2022/12/18 01:29:29;;;;;;;61.05;37.95;;;;;;;-7.90;100.00;102645.88;5022270;28;20026;-63
2022/12/18 01:31:56;;;;;;;58.42;36.95;;;;;;;-7.89;100.00;102642.56;5025916;28;20127;-62
2022/12/18 01:34:23;;;;;;;54.55;35.78;;;;;;;-7.88;100.00;102637.59;5022817;28;20050;-67
2022/12/18 01:36:48;;;;;;;57.90;36.47;;;;;;;-7.92;100.00;102634.50;5024371;28;20033;-63
2022/12/18 01:39:15;;;;;;;59.42;37.08;;;;;;;-7.85;100.00;102631.84;5022732;28;20037;-62
2022/12/18 01:44:56;;;;;;;57.85;36.47;;;;;;;-7.90;100.00;102636.50;5022445;28;20496;-64
2022/12/18 01:47:43;;;;;;;55.40;34.95;;;;;;;-7.96;100.00;102640.09;5024607;28;20025;-64
2022/12/18 01:50:36;;;;;;;57.03;35.67;;;;;;;-7.92;100.00;102635.44;5022482;28;20050;-62
2022/12/18 01:53:07;;;;;;;54.13;34.22;;;;;;;-7.93;100.00;102638.72;5021481;28;20110;-64
2022/12/18 01:55:57;;;;;;;54.63;35.05;;;;;;;-7.92;100.00;102637.06;5025053;28;20026;-65
2022/12/18 01:58:32;;;;;;;55.28;35.63;;;;;;;-7.92;100.00;102644.78;5024023;28;20038;-63
2022/12/18 02:00:57;;;;;;;52.53;35.13;;;;;;;-7.89;100.00;102635.75;5021771;28;20100;-63
2022/12/18 02:03:22;;;;;;;55.10;35.72;;;;;;;-7.84;100.00;102625.06;5024446;28;20120;-63
2022/12/18 02:06:01;;;;;;;53.67;35.53;;;;;;;-7.86;100.00;102614.63;5023275;28;20029;-63
2022/12/18 02:08:39;;;;;;;53.53;35.50;;;;;;;-7.81;100.00;102617.69;5023578;28;20117;-62
2022/12/18 02:11:10;;;;;;;53.33;34.38;;;;;;;-7.83;100.00;102620.09;5022068;28;20423;-62
2022/12/18 02:13:40;;;;;;;54.05;35.25;;;;;;;-7.82;100.00;102616.78;5024291;28;20068;-64
2022/12/18 02:16:20;;;;;;;53.33;34.97;;;;;;;-7.81;100.00;102626.28;5022290;28;20033;-66
2022/12/18 02:18:50;;;;;;;52.10;33.28;;;;;;;-7.79;100.00;102621.31;5023026;28;20022;-64
2022/12/18 02:21:19;;;;;;;51.28;33.35;;;;;;;-7.78;100.00;102618.91;5023309;28;20472;-63
2022/12/18 02:23:52;;;;;;;51.20;33.63;;;;;;;-7.80;100.00;102615.28;5022774;28;20022;-64
2022/12/18 02:26:17;;;;;;;52.47;34.13;;;;;;;-7.86;100.00;102616.28;5023372;28;20034;-64
2022/12/18 02:28:54;;;;;;;51.75;33.97;;;;;;;-7.86;100.00;102619.78;5023262;28;20030;-63
2022/12/18 02:31:27;;;;;;;50.42;32.83;;;;;;;-7.94;100.00;102621.50;5023908;28;20022;-62
2022/12/18 02:33:56;;;;;;;49.10;31.48;;;;;;;-8.06;100.00;102617.63;5021698;28;20084;-62
2022/12/18 02:36:23;;;;;;;49.92;31.58;;;;;;;-8.06;100.00;102618.53;5023911;28;20080;-62
2022/12/18 02:38:51;;;;;;;50.95;32.38;;;;;;;-8.13;100.00;102616.06;5022430;28;20120;-64
2022/12/18 02:41:18;;;;;;;51.50;32.58;;;;;;;-8.12;100.00;102616.97;5023169;28;20026;-63
2022/12/18 02:43:58;;;;;;;50.63;33.38;;;;;;;-8.17;100.00;102611.31;5022933;28;20021;-63
2022/12/18 02:46:36;;;;;;;50.78;33.28;;;;;;;-8.14;100.00;102610.75;5024169;28;20032;-63
2022/12/18 02:49:36;;;;;;;50.03;32.75;;;;;;;-8.13;100.00;102604.88;5020870;28;20025;-62
2022/12/18 02:52:11;;;;;;;50.58;33.00;;;;;;;-8.15;100.00;102589.31;5010552;28;20133;-62
2022/12/18 02:54:47;;;;;;;51.25;32.45;;;;;;;-8.21;100.00;102590.31;5021939;28;20096;-61
2022/12/18 02:57:54;;;;;;;50.80;33.47;;;;;;;-8.19;100.00;102599.09;5023079;28;20061;-62
2022/12/18 03:00:25;;;;;;;50.55;32.63;;;;;;;-8.23;100.00;102601.34;5022818;28;20409;-62
2022/12/18 03:03:00;;;;;;;50.90;33.00;;;;;;;-8.34;100.00;102598.31;5022044;28;20033;-64
2022/12/18 03:05:55;;;;;;;50.33;33.08;;;;;;;-8.38;100.00;102596.19;5022929;28;20033;-62
2022/12/18 03:08:37;;;;;;;50.67;32.33;;;;;;;-8.37;100.00;102587.75;5021392;28;20478;-62
2022/12/18 03:11:05;;;;;;;50.37;33.60;;;;;;;-8.36;100.00;102580.19;5023717;28;20040;-63
2022/12/18 03:13:41;;;;;;;49.80;32.28;;;;;;;-8.42;100.00;102575.34;5020746;28;20277;-62
2022/12/18 03:16:11;;;;;;;52.67;34.67;;;;;;;-8.32;100.00;102573.75;5021532;28;20080;-63
2022/12/18 03:18:45;;;;;;;52.13;34.58;;;;;;;-8.27;100.00;102567.44;5023566;28;20030;-63
2022/12/18 03:21:14;;;;;;;53.22;34.58;;;;;;;-8.19;100.00;102571.75;5022165;28;20025;-67
2022/12/18 03:23:47;;;;;;;52.13;34.13;;;;;;;-8.18;100.00;102578.72;5021879;28;20104;-68
2022/12/18 03:26:17;;;;;;;51.53;33.88;;;;;;;-8.19;100.00;102581.13;5022049;28;20032;-67
2022/12/18 03:28:49;;;;;;;53.30;34.28;;;;;;;-8.25;100.00;102576.25;5022897;28;20426;-68
2022/12/18 03:31:15;;;;;;;52.73;34.00;;;;;;;-8.26;100.00;102579.56;5022467;28;20037;-67
2022/12/18 03:33:52;;;;;;;51.80;33.80;;;;;;;-8.34;100.00;102585.50;5021844;28;20283;-69
2022/12/18 03:36:18;;;;;;;49.92;33.30;;;;;;;-8.41;100.00;102582.28;5023635;28;20377;-68
2022/12/18 03:38:43;;;;;;;48.28;32.40;;;;;;;-8.45;100.00;102587.84;5026246;28;20034;-67
2022/12/18 03:41:26;;;;;;;52.00;32.47;;;;;;;-8.51;100.00;102584.63;5024096;28;20033;-67
2022/12/18 03:44:04;;;;;;;;;;;;;;;-8.51;100.00;102579.50;5025487;28;20592;-66
2022/12/18 03:46:58;;;;;;;48.70;32.30;;;;;;;-8.47;100.00;102579.09;5024225;28;20347;-68
2022/12/18 03:49:33;;;;;;;49.95;32.08;;;;;;;-8.37;100.00;102575.84;5026745;28;20183;-68
2022/12/18 03:52:12;;;;;;;50.38;33.28;;;;;;;-8.35;100.00;102565.75;5024156;28;20026;-68
2022/12/18 03:54:41;;;;;;;50.60;32.75;;;;;;;-8.34;100.00;102564.97;5024796;28;20064;-67
2022/12/18 03:57:14;;;;;;;50.05;32.63;;;;;;;-8.30;100.00;102562.00;5026881;28;20017;-67
2022/12/18 03:59:40;;;;;;;49.67;32.38;;;;;;;-8.32;100.00;102551.56;5024960;28;20037;-68
2022/12/18 04:02:07;;;;;;;47.97;31.00;;;;;;;-8.34;100.00;102549.56;5026982;28;20029;-67
2022/12/18 04:04:35;;;;;;;46.78;31.02;;;;;;;-8.31;100.00;102531.97;5024103;28;20428;-67
2022/12/18 04:07:02;;;;;;;47.65;30.67;;;;;;;-8.38;100.00;102524.38;5024231;28;20056;-67
2022/12/18 04:09:29;;;;;;;45.97;30.75;;;;;;;-8.41;100.00;102533.53;5027222;28;20034;-64
2022/12/18 04:11:55;;;;;;;46.90;31.02;;;;;;;-8.37;100.00;102533.84;5024103;28;20036;-61
2022/12/18 04:14:20;;;;;;;46.97;30.40;;;;;;;-8.33;100.00;102536.00;5024859;28;20108;-62
2022/12/18 04:16:46;;;;;;;45.53;30.30;;;;;;;-8.31;100.00;102534.53;5025552;28;20073;-65
2022/12/18 04:19:11;;;;;;;46.88;30.05;;;;;;;-8.28;100.00;102524.59;5024694;28;20032;-61
2022/12/18 04:21:36;;;;;;;45.45;29.70;;;;;;;-8.26;100.00;102517.97;5026607;28;20116;-61
2022/12/18 04:24:02;;;;;;;46.28;29.75;;;;;;;-8.29;100.00;102515.97;5023531;28;20037;-62
2022/12/18 04:26:27;;;;;;;44.95;29.88;;;;;;;-8.26;100.00;102512.81;5026652;28;20030;-62
2022/12/18 04:28:52;;;;;;;45.17;29.85;;;;;;;-8.22;100.00;102527.81;5024299;28;20042;-61
2022/12/18 04:31:18;;;;;;;46.40;29.08;;;;;;;-8.20;100.00;102518.59;5025379;28;20118;-64
2022/12/18 04:33:43;;;;;;;44.78;28.35;;;;;;;-8.19;100.00;102525.56;5025302;28;20032;-61
2022/12/18 04:36:09;;;;;;;43.50;28.48;;;;;;;-8.19;100.00;102528.13;5024151;28;20034;-61
2022/12/18 04:38:34;;;;;;;43.00;27.25;;;;;;;-8.24;100.00;102540.47;5026491;28;20025;-63
2022/12/18 04:40:59;;;;;;;44.42;28.77;;;;;;;-8.28;100.00;102545.13;5022092;28;20034;-62
2022/12/18 04:43:25;;;;;;;41.17;27.25;;;;;;;-8.29;100.00;102539.06;5026071;28;20029;-63
2022/12/18 04:45:50;;;;;;;42.13;27.17;;;;;;;-8.34;100.00;102527.41;5024156;28;20069;-62
2022/12/18 04:48:15;;;;;;;42.78;27.60;;;;;;;-8.35;100.00;102546.13;5024783;28;20030;-61
2022/12/18 04:50:41;;;;;;;41.90;26.85;;;;;;;-8.36;100.00;102553.66;5023659;28;20191;-61
2022/12/18 04:53:06;;;;;;;42.10;27.38;;;;;;;-8.46;100.00;102565.53;5023484;28;20034;-61
2022/12/18 04:55:31;;;;;;;41.80;26.80;;;;;;;-8.49;100.00;102570.34;5026530;28;20423;-62
2022/12/18 04:57:57;;;;;;;41.38;26.75;;;;;;;-8.48;100.00;102561.88;5023069;28;20034;-61
2022/12/18 05:00:22;;;;;;;41.80;26.77;;;;;;;-8.48;100.00;102561.88;5027124;28;20037;-62
2022/12/18 05:02:48;;;;;;;41.20;26.85;;;;;;;-8.51;100.00;102561.53;5023615;28;20041;-61
2022/12/18 05:05:14;;;;;;;41.35;25.52;;;;;;;-8.47;100.00;102561.13;5025051;28;20065;-61
2022/12/18 05:07:39;;;;;;;41.55;26.30;;;;;;;-8.55;100.00;102559.38;5023693;28;20121;-62
2022/12/18 05:10:07;;;;;;;40.63;26.40;;;;;;;-8.52;100.00;102569.06;5026107;28;20121;-62
2022/12/18 05:12:32;;;;;;;41.17;26.10;;;;;;;-8.54;100.00;102576.59;5022587;28;20038;-61
2022/12/18 05:14:58;;;;;;;41.00;25.90;;;;;;;-8.60;100.00;102574.28;5025763;28;20034;-61
2022/12/18 05:17:23;;;;;;;41.10;26.00;;;;;;;-8.69;100.00;102565.59;5023776;28;20113;-62
2022/12/18 05:19:48;;;;;;;39.55;26.30;;;;;;;-8.69;100.00;102567.22;5024671;28;20388;-62
2022/12/18 05:22:14;;;;;;;41.40;25.63;;;;;;;-8.74;100.00;102565.84;5024627;28;20036;-62
2022/12/18 05:24:39;;;;;;;42.08;26.05;;;;;;;-8.74;100.00;102556.47;5023014;28;20120;-61
2022/12/18 05:27:05;;;;;;;40.92;26.42;;;;;;;-8.69;100.00;102549.28;5025614;28;20508;-61
2022/12/18 05:29:30;;;;;;;41.53;26.48;;;;;;;-8.60;100.00;102558.88;5021448;28;20125;-61
2022/12/18 05:31:55;;;;;;;41.03;26.83;;;;;;;-8.55;100.00;102556.81;5025224;28;20459;-62
2022/12/18 05:34:21;;;;;;;41.83;26.42;;;;;;;-8.55;100.00;102561.94;5023251;28;20116;-61
2022/12/18 05:36:46;;;;;;;40.25;25.40;;;;;;;-8.51;100.00;102558.97;5022723;28;20105;-61
2022/12/18 05:39:12;;;;;;;40.45;25.90;;;;;;;-8.51;100.00;102564.09;5024418;28;20029;-61
2022/12/18 05:41:37;;;;;;;40.97;25.98;;;;;;;-8.49;100.00;102548.88;5022524;28;20029;-62
2022/12/18 05:44:03;;;;;;;40.17;25.05;;;;;;;-8.58;100.00;102556.50;5025807;28;20040;-61
2022/12/18 05:46:29;;;;;;;40.33;25.83;;;;;;;-8.68;100.00;102540.84;5022104;28;20255;-61
2022/12/18 05:48:54;;;;;;;39.90;25.13;;;;;;;-8.77;100.00;102541.66;5024478;28;20037;-61
2022/12/18 05:51:21;;;;;;;40.38;25.85;;;;;;;-8.83;100.00;102538.44;5022008;28;20042;-61
2022/12/18 05:53:48;;;;;;;40.00;25.60;;;;;;;-8.87;100.00;102541.41;5023802;28;20048;-62
2022/12/18 05:56:19;;;;;;;38.72;25.23;;;;;;;-8.88;100.00;102543.78;5022654;28;20484;-62
2022/12/18 05:58:45;;;;;;;38.78;24.80;;;;;;;-8.91;100.00;102535.78;5023136;28;20030;-62
2022/12/18 06:01:23;;;;;;;40.47;25.52;;;;;;;-8.92;100.00;102537.44;5024121;28;20392;-61
2022/12/18 06:03:49;;;;;;;40.75;25.55;;;;;;;-8.94;100.00;102531.22;5023650;28;20029;-61
2022/12/18 06:06:23;;;;;;;39.67;25.30;;;;;;;-8.90;100.00;102535.94;5023854;28;20091;-62
2022/12/18 06:08:49;;;;;;;40.17;25.90;;;;;;;-8.86;100.00;102532.97;5023677;28;20022;-61
2022/12/18 06:11:26;;;;;;;40.33;25.17;;;;;;;-8.86;100.00;102530.41;5023414;28;20052;-62
2022/12/18 06:13:55;;;;;;;40.65;25.10;;;;;;;-8.83;100.00;102541.00;5023711;28;20041;-61
2022/12/18 06:16:21;;;;;;;40.00;25.75;;;;;;;-8.84;100.00;102540.84;5022789;28;20068;-62
2022/12/18 06:18:46;;;;;;;40.95;26.45;;;;;;;-8.83;100.00;102537.53;5023282;28;20525;-62
2022/12/18 06:21:12;;;;;;;41.95;25.52;;;;;;;-8.88;100.00;102536.09;5023678;28;20476;-61
2022/12/18 06:23:37;;;;;;;39.08;24.85;;;;;;;-8.89;100.00;102537.78;5021849;28;20025;-61
2022/12/18 06:26:05;;;;;;;41.05;25.77;;;;;;;-8.90;100.00;102535.94;5024737;28;20112;-63
2022/12/18 06:28:31;;;;;;;38.83;25.15;;;;;;;-8.90;100.00;102541.06;5021248;28;20110;-61
2022/12/18 06:30:56;;;;;;;39.58;25.50;;;;;;;-8.93;100.00;102540.72;5024202;28;20117;-61
2022/12/18 06:33:21;;;;;;;39.97;25.80;;;;;;;-8.92;100.00;102537.44;5022585;28;20041;-62
2022/12/18 06:35:47;;;;;;;39.78;24.70;;;;;;;-9.01;100.00;102534.78;5005110;28;20038;-61
2022/12/18 06:38:13;;;;;;;38.50;24.08;;;;;;;-9.03;100.00;102538.81;5023756;28;20034;-61
2022/12/18 06:40:39;;;;;;;39.13;24.48;;;;;;;-9.07;100.00;102541.81;5021608;28;20022;-61
2022/12/18 06:43:04;;;;;;;38.13;24.20;;;;;;;-9.08;100.00;102526.25;5023266;28;20083;-62
2022/12/18 06:45:30;;;;;;;38.92;24.95;;;;;;;-8.99;100.00;102517.91;5023500;28;20034;-61
2022/12/18 06:47:55;;;;;;;40.47;25.40;;;;;;;-9.04;100.00;102515.56;5021640;28;20385;-61
2022/12/18 06:50:20;;;;;;;39.25;25.30;;;;;;;-9.01;100.00;102518.47;5021672;28;20053;-61
2022/12/18 06:52:46;;;;;;;39.17;24.90;;;;;;;-9.00;100.00;102516.09;5023135;28;20040;-65
2022/12/18 06:55:11;;;;;;;38.88;25.30;;;;;;;-8.99;100.00;102511.88;5020618;28;20030;-62
2022/12/18 06:57:37;;;;;;;40.65;26.23;;;;;;;-9.02;100.00;102512.44;5024115;28;20029;-61
2022/12/18 07:00:06;;;;;;;40.47;25.95;;;;;;;-8.94;100.00;102518.41;5021098;28;20030;-61
2022/12/18 07:02:32;;;;;;;39.58;25.35;;;;;;;-8.96;100.00;102519.91;5020930;28;20045;-62
2022/12/18 07:04:57;;;;;;;40.38;25.80;;;;;;;-9.00;100.00;102517.72;5023872;28;20030;-62
2022/12/18 07:07:22;;;;;;;41.10;25.92;;;;;;;-8.99;100.00;102527.25;5022073;28;20384;-63
2022/12/18 07:09:50;;;;;;;40.50;25.58;;;;;;;-8.98;100.00;102517.16;5021343;28;20038;-61
2022/12/18 07:12:15;;;;;;;40.03;25.42;;;;;;;-8.96;100.00;102509.66;5025760;28;20100;-61
2022/12/18 07:14:41;;;;;;;38.90;25.35;;;;;;;-8.97;100.00;102506.19;5024467;28;20542;-61
2022/12/18 07:17:06;;;;;;;39.28;25.75;;;;;;;-8.98;100.00;102485.50;5028032;28;20116;-62
2022/12/18 07:19:32;;;;;;;41.85;27.30;;;;;;;-8.96;100.00;102491.69;5024897;28;20113;-62
2022/12/18 07:21:57;;;;;;;39.67;26.13;;;;;;;-8.94;100.00;102485.06;5027670;28;20056;-65
2022/12/18 07:24:23;;;;;;;42.05;27.20;;;;;;;-8.86;100.00;102480.81;5025570;28;20029;-61
2022/12/18 07:26:48;;;;;;;42.20;27.88;;;;;;;-8.75;100.00;102464.94;5008949;28;20038;-62
2022/12/18 07:29:14;;;;;;;42.40;27.63;;;;;;;-8.66;100.00;102454.75;5026714;28;20037;-62
2022/12/18 07:31:39;;;;;;;41.88;28.02;;;;;;;-8.60;100.00;102457.97;5024931;28;20474;-68
2022/12/18 07:34:04;;;;;;;42.33;28.38;;;;;;;-8.55;100.00;102450.75;5028333;28;20147;-69
2022/12/18 07:36:30;;;;;;;42.33;27.92;;;;;;;-8.46;100.00;102456.84;5024406;28;20030;-68
2022/12/18 07:38:55;;;;;;;43.05;28.35;;;;;;;-8.42;100.00;102457.34;5027042;28;20033;-68
2022/12/18 07:41:21;;;;;;;42.17;27.70;;;;;;;-8.38;100.00;102455.09;5025870;28;20468;-68
2022/12/18 07:43:47;;;;;;;42.00;27.42;;;;;;;-8.32;100.00;102443.78;5025783;28;20040;-68
2022/12/18 07:46:13;;;;;;;41.65;26.92;;;;;;;-8.31;100.00;102442.16;5025569;28;20079;-68
2022/12/18 07:48:40;;;;;;;41.35;26.73;;;;;;;-8.25;100.00;102437.66;5024682;28;20033;-69
2022/12/18 07:51:07;;;;;;;42.30;27.77;;;;;;;-8.15;100.00;102425.03;5027268;28;20140;-66
2022/12/18 07:53:33;;;;;;;42.17;27.88;;;;;;;-8.10;100.00;102423.84;5024234;28;20030;-66
2022/12/18 07:56:02;;;;;;;41.58;27.15;;;;;;;-8.02;100.00;102418.59;5027367;28;20167;-68
2022/12/18 07:58:28;;;;;;;41.70;27.98;;;;;;;-7.98;100.00;102407.91;5024532;28;20030;-68
2022/12/18 08:00:53;;;;;;;41.95;27.83;;;;;;;-7.91;100.00;102403.59;5026571;28;20061;-67
2022/12/18 08:03:19;;;;;;;42.30;28.33;;;;;;;-7.85;100.00;102415.22;5025714;28;20496;-69
2022/12/18 08:05:45;;;;;;;42.83;28.42;;;;;;;-7.79;100.00;102421.00;5025280;28;20064;-68
2022/12/18 08:08:10;;;;;;;42.28;27.67;;;;;;;-7.69;100.00;102431.47;5026899;28;20034;-68
2022/12/18 08:10:35;;;;;;;41.50;27.92;;;;;;;-7.59;100.00;102430.75;5023685;28;20452;-62
2022/12/18 08:13:01;;;;;;;42.38;26.98;;;;;;;-7.47;100.00;102432.03;5025913;28;20038;-64
2022/12/18 08:15:26;;;;;;;41.05;27.10;;;;;;;-7.41;100.00;102417.22;5024498;28;20445;-62
2022/12/18 08:17:51;;;;;;;40.75;26.08;;;;;;;-7.32;100.00;102421.47;5025825;28;20034;-64
2022/12/18 08:20:18;;;;;;;40.13;26.38;;;;;;;-7.29;100.00;102430.41;5025851;28;20389;-62
2022/12/18 08:22:44;;;;;;;39.65;26.08;;;;;;;-7.22;100.00;102429.38;5024449;28;20113;-62
2022/12/18 08:25:09;;;;;;;40.03;26.70;;;;;;;-7.12;100.00;102442.41;5026516;28;20068;-63
2022/12/18 08:27:35;;;;;;;42.75;26.98;;;;;;;-7.01;100.00;102435.75;5023486;28;20482;-62
2022/12/18 08:30:01;;;;;;;40.60;25.70;;;;;;;-6.89;100.00;102430.94;5026859;28;20037;-62
2022/12/18 08:32:27;;;;;;;40.67;26.45;;;;;;;-6.77;100.00;102432.19;5024111;28;20466;-63
2022/12/18 08:34:53;;;;;;;40.13;26.40;;;;;;;-6.68;100.00;102427.03;5025552;28;20034;-62
2022/12/18 08:37:18;;;;;;;38.70;25.83;;;;;;;-6.58;100.00;102433.97;5025449;28;20029;-62
2022/12/18 08:39:44;;;;;;;38.30;24.92;;;;;;;-6.50;100.00;102433.97;5022923;28;20033;-62
2022/12/18 08:44:53;;;;;;;38.03;25.65;;;;;;;-6.37;100.00;102412.91;5025678;28;20065;-63
2022/12/18 08:47:19;;;;;;;38.50;25.63;;;;;;;-6.35;100.00;102408.84;5025203;28;20042;-65
2022/12/18 08:49:44;;;;;;;37.25;24.35;;;;;;;-6.35;100.00;102393.41;5023814;28;20066;-62
2022/12/18 08:52:09;;;;;;;38.28;25.10;;;;;;;-6.31;100.00;102400.63;5026194;28;20476;-62
2022/12/18 08:54:35;;;;;;;37.35;24.23;;;;;;;-6.22;100.00;102408.34;5023001;28;20038;-62
2022/12/18 08:57:00;;;;;;;38.08;25.23;;;;;;;-6.10;100.00;102406.06;5026139;28;20139;-62
2022/12/18 08:59:26;;;;;;;37.90;24.58;;;;;;;-6.01;100.00;102413.78;5023889;28;20034;-62
2022/12/18 09:01:53;;;;;;;37.15;24.27;;;;;;;-5.89;100.00;102401.13;5024743;28;20037;-62
2022/12/18 09:04:19;;;;;;;37.83;24.05;;;;;;;-5.81;100.00;102405.31;5024768;28;20036;-62
2022/12/18 09:06:44;;;;;;;36.28;23.48;;;;;;;-5.72;100.00;102395.91;5024019;28;20026;-62
2022/12/18 09:09:10;;;;;;;36.78;23.00;;;;;;;-5.62;100.00;102402.81;5025652;28;20030;-67
2022/12/18 09:11:35;;;;;;;36.58;23.63;;;;;;;-5.55;100.00;102420.69;5021403;28;20393;-67
2022/12/18 09:14:01;;;;;;;36.45;23.30;;;;;;;-5.51;100.00;102432.19;5025943;28;20072;-67
2022/12/18 09:16:29;;;;;;;36.67;23.35;;;;;;;-5.49;100.00;102429.00;5023122;28;20041;-68
2022/12/18 09:18:59;;;;;;;37.70;23.38;;;;;;;-5.41;100.00;102433.97;5024902;28;20123;-67
2022/12/18 09:21:26;;;;;;;36.80;22.88;;;;;;;-5.39;100.00;102429.88;5023367;28;20477;-62
2022/12/18 09:23:52;;;;;;;34.97;22.15;;;;;;;-5.41;100.00;102440.03;5024394;28;20017;-62
2022/12/18 09:26:18;;;;;;;36.33;22.67;;;;;;;-5.36;100.00;102433.63;5024194;28;20030;-62
2022/12/18 09:28:44;;;;;;;36.67;22.55;;;;;;;-5.34;100.00;102421.81;5023361;28;20466;-62
2022/12/18 09:31:15;;;;;;;34.78;21.85;;;;;;;-5.33;100.00;102418.47;5025148;28;20044;-62
2022/12/18 09:33:41;;;;;;;36.38;22.83;;;;;;;-5.28;100.00;102411.16;5021782;28;20096;-62
2022/12/18 09:36:09;;;;;;;36.45;23.95;;;;;;;-5.21;100.00;102408.38;5025908;28;20152;-62
2022/12/18 09:38:35;;;;;;;35.67;22.77;;;;;;;-5.13;100.00;102406.50;5022095;28;20397;-62
2022/12/18 09:41:14;;;;;;;34.85;22.55;;;;;;;-5.11;100.00;102400.72;5025430;28;20021;-62
2022/12/18 09:43:45;;;;;;;35.15;21.90;;;;;;;-5.09;100.00;102403.44;5022381;28;20030;-62
2022/12/18 09:46:19;;;;;;;34.80;22.13;;;;;;;-5.00;100.00;102399.13;5024964;28;20025;-62
2022/12/18 09:48:50;;;;;;;35.47;22.85;;;;;;;-4.91;100.00;102400.00;5022994;28;20025;-62
2022/12/18 09:51:27;;;;;;;36.85;22.33;;;;;;;-4.78;100.00;102380.44;5023928;28;20052;-62
2022/12/18 09:54:00;;;;;;;35.92;22.95;;;;;;;-4.68;100.00;102372.78;5023921;28;20026;-62
2022/12/18 09:56:28;;;;;;;35.15;22.42;;;;;;;-4.57;100.00;102361.75;5022687;28;20083;-62
2022/12/18 09:59:01;;;;;;;34.60;22.02;;;;;;;-4.49;100.00;102364.09;5024164;28;20032;-62
2022/12/18 10:01:28;;;;;;;35.33;22.88;;;;;;;-4.42;100.00;102381.97;5022715;28;20033;-62
2022/12/18 10:03:55;;;;;;;34.10;22.00;;;;;;;-4.25;100.00;102388.59;5023939;28;20021;-62
2022/12/18 10:06:38;;;;;;;35.25;22.70;;;;;;;-4.18;100.00;102385.78;5023697;28;20033;-62
2022/12/18 10:09:22;;;;;;;34.78;22.38;;;;;;;-4.01;100.00;102381.22;5021762;28;20026;-62
2022/12/18 10:12:20;;;;;;;34.80;22.02;;;;;;;-3.95;100.00;102385.25;5023132;28;20488;-63
2022/12/18 10:15:13;;;;;;;34.58;21.65;;;;;;;-3.88;100.00;102378.94;5022649;28;20026;-62
2022/12/18 10:18:08;;;;;;;33.60;21.15;;;;;;;-3.83;100.00;102382.81;5020394;28;20025;-62
2022/12/18 10:20:48;;;;;;;32.95;21.00;;;;;;;-3.82;100.00;102388.91;5020894;28;20049;-62
2022/12/18 10:23:25;;;;;;;33.30;21.02;;;;;;;-3.81;100.00;102386.47;5022453;28;20030;-62
2022/12/18 10:26:10;;;;;;;34.05;21.15;;;;;;;-3.68;100.00;102384.16;5022816;28;20077;-62
2022/12/18 10:28:38;;;;;;;33.95;21.17;;;;;;;-3.65;100.00;102362.84;5021560;28;20374;-62
2022/12/18 10:31:17;;;;;;;32.72;20.38;;;;;;;-3.53;100.00;102361.28;5021437;28;20033;-61
2022/12/18 10:33:42;;;;;;;33.40;21.38;;;;;;;-3.57;100.00;102355.72;5022043;28;20030;-62
2022/12/18 10:36:08;;;;;;;33.28;21.35;;;;;;;-3.50;100.00;102352.91;5024712;28;20052;-63
2022/12/18 10:38:33;;;;;;;33.33;20.85;;;;;;;-3.44;100.00;102344.75;5021168;28;20026;-61
2022/12/18 10:41:02;;;;;;;32.90;21.27;;;;;;;-3.30;100.00;102344.25;5024254;28;20039;-62
2022/12/18 10:43:33;;;;;;;33.97;21.38;;;;;;;-3.36;100.00;102335.97;5022111;28;20029;-62
2022/12/18 10:46:24;;;;;;;33.33;20.83;;;;;;;-3.24;100.00;102334.41;5023674;28;20025;-62
2022/12/18 10:48:54;;;;;;;33.35;20.42;;;;;;;-3.28;100.00;102327.16;5019608;28;20050;-64
2022/12/18 10:51:29;;;;;;;33.88;20.98;;;;;;;-3.23;100.00;102328.47;5022826;28;20053;-67
2022/12/18 10:53:56;;;;;;;33.85;20.88;;;;;;;-3.20;100.00;102318.38;5023386;28;20076;-63
2022/12/18 10:56:24;;;;;;;33.63;20.60;;;;;;;-3.14;100.00;102328.34;5022395;28;20025;-64
2022/12/18 10:59:02;;;;;;;32.70;20.77;;;;;;;-3.19;100.00;102314.09;5022483;28;20033;-65
2022/12/18 11:01:28;;;;;;;36.17;21.95;;;;;;;-3.22;100.00;102303.50;5021547;28;20060;-63
2022/12/18 11:03:53;;;;;;;32.47;20.23;;;;;;;-3.20;100.00;102297.69;5023131;28;20030;-64
2022/12/18 11:06:24;;;;;;;32.10;20.73;;;;;;;-3.22;100.00;102301.84;5022807;28;20087;-63
2022/12/18 11:09:18;;;;;;;32.28;20.27;;;;;;;-3.19;100.00;102299.50;5022378;28;20038;-65
2022/12/18 11:11:49;;;;;;;31.75;19.70;;;;;;;-3.23;100.00;102299.09;5021595;28;20033;-67
2022/12/18 11:14:27;;;;;;;31.85;20.02;;;;;;;-3.24;100.00;102305.94;5023496;28;20033;-68
2022/12/18 11:16:53;;;;;;;32.45;20.63;;;;;;;-3.15;100.00;102311.00;5022889;28;20034;-68